Time;durP1;ratioP1;P1;durP2;ratioP2;P2;SDS_P1;SDS_P2;PMS_P1;PMS_P2;Temp;Humidity;BMP_temperature;BMP_pressure;BME280_temperature;BME280_humidity;BME280_pressure;Samples;Min_cycle;Max_cycle;Signal;HPM_P1;HPM_P2
2022/05/02 00:00:48;;;;;;;3.30;2.10;;;11.70;98.00;;;;;;5055119;28;20464;-64
2022/05/02 00:03:16;;;;;;;2.33;2.00;;;11.80;98.00;;;;;;5055025;28;20460;-64
2022/05/02 00:05:43;;;;;;;1.63;1.60;;;11.80;98.00;;;;;;5055043;28;20529;-64
2022/05/02 00:08:12;;;;;;;3.00;1.80;;;11.70;98.00;;;;;;5054868;28;20555;-64
2022/05/02 00:10:39;;;;;;;1.83;1.67;;;11.70;98.00;;;;;;5054788;28;20454;-64
2022/05/02 00:13:09;;;;;;;3.60;2.30;;;11.70;98.00;;;;;;5054766;28;20450;-65
2022/05/02 00:15:37;;;;;;;2.70;2.07;;;11.80;98.00;;;;;;5054624;28;20510;-64
2022/05/02 00:18:05;;;;;;;2.17;2.00;;;11.80;98.00;;;;;;5054448;28;20495;-64
2022/05/02 00:20:34;;;;;;;2.70;2.20;;;11.80;98.00;;;;;;5054617;28;20467;-64
2022/05/02 00:23:05;;;;;;;1.53;1.50;;;11.70;98.00;;;;;;5054757;28;20460;-64
2022/05/02 00:25:34;;;;;;;2.63;2.10;;;11.70;98.00;;;;;;5037047;28;20462;-65
2022/05/02 00:28:01;;;;;;;2.80;1.70;;;11.70;98.00;;;;;;5054613;28;20487;-64
2022/05/02 00:30:29;;;;;;;3.07;2.37;;;11.70;98.00;;;;;;5054685;28;20518;-64
2022/05/02 00:32:57;;;;;;;2.70;2.20;;;11.70;98.00;;;;;;5054498;28;20526;-64
2022/05/02 00:35:24;;;;;;;3.07;1.73;;;11.70;98.00;;;;;;5054292;28;20573;-65
2022/05/02 00:37:52;;;;;;;3.73;2.03;;;11.40;98.00;;;;;;5054532;28;20820;-64
2022/05/02 00:40:19;;;;;;;1.70;1.60;;;11.30;98.00;;;;;;5053348;28;20562;-65
2022/05/02 00:42:48;;;;;;;2.17;1.87;;;11.20;98.00;;;;;;5054454;28;20460;-65
2022/05/02 00:45:17;;;;;;;3.03;2.10;;;11.20;98.00;;;;;;5054213;28;20507;-65
2022/05/02 00:47:51;;;;;;;2.50;2.30;;;11.20;98.00;;;;;;5054350;28;20465;-65
2022/05/02 00:50:32;;;;;;;3.03;2.27;;;11.20;98.00;;;;;;5053780;28;20478;-65
2022/05/02 00:53:00;;;;;;;3.07;2.20;;;11.20;98.00;;;;;;5038270;28;20508;-65
2022/05/02 00:55:30;;;;;;;2.87;2.23;;;11.20;98.00;;;;;;5053735;28;20497;-65
2022/05/02 00:57:59;;;;;;;3.80;1.93;;;11.20;98.00;;;;;;5036399;28;20453;-64
2022/05/02 01:00:26;;;;;;;1.93;1.80;;;11.20;98.00;;;;;;5053760;28;20492;-65
2022/05/02 01:02:53;;;;;;;2.43;1.87;;;11.20;98.00;;;;;;5053749;28;20519;-65
2022/05/02 01:05:20;;;;;;;2.10;1.63;;;11.10;98.00;;;;;;5053590;28;20464;-64
2022/05/02 01:07:46;;;;;;;2.23;1.70;;;11.10;98.00;;;;;;5053666;28;20446;-64
2022/05/02 01:10:17;;;;;;;1.73;1.63;;;11.10;98.00;;;;;;5053588;28;20818;-64
2022/05/02 01:12:44;;;;;;;2.67;1.80;;;11.00;98.00;;;;;;5053496;28;20485;-64
2022/05/02 01:15:13;;;;;;;1.20;1.20;;;11.00;98.00;;;;;;5035063;28;20950;-65
2022/05/02 01:17:41;;;;;;;2.73;2.20;;;11.00;98.00;;;;;;5053049;28;20455;-64
2022/05/02 01:20:11;;;;;;;4.20;1.97;;;11.00;98.00;;;;;;5052707;28;20455;-64
2022/05/02 01:22:38;;;;;;;4.30;2.10;;;11.10;98.00;;;;;;5053163;28;20456;-65
2022/05/02 01:25:06;;;;;;;4.17;2.13;;;11.10;98.00;;;;;;5053443;28;20930;-64
2022/05/02 01:27:34;;;;;;;2.60;2.20;;;11.20;98.00;;;;;;5036012;28;20467;-64
2022/05/02 01:30:01;;;;;;;2.60;2.20;;;11.10;98.00;;;;;;5053337;28;20456;-64
2022/05/02 01:32:28;;;;;;;2.20;1.60;;;11.10;98.00;;;;;;5053462;28;20790;-64
2022/05/02 01:34:56;;;;;;;3.00;1.97;;;11.10;98.00;;;;;;5053276;28;20464;-64
2022/05/02 01:37:25;;;;;;;4.40;2.27;;;11.20;98.00;;;;;;5053214;28;20496;-64
2022/05/02 01:39:52;;;;;;;1.90;1.80;;;11.30;98.00;;;;;;5053559;28;20791;-64
2022/05/02 01:42:20;;;;;;;1.93;1.77;;;11.20;98.00;;;;;;5053210;28;20465;-64
2022/05/02 01:44:47;;;;;;;1.60;1.60;;;11.10;98.00;;;;;;5053195;28;20457;-64
2022/05/02 01:47:14;;;;;;;3.70;2.10;;;11.10;98.00;;;;;;5053381;28;20486;-65
2022/05/02 01:49:41;;;;;;;1.90;1.80;;;11.20;98.00;;;;;;5052673;28;20465;-65
2022/05/02 01:52:10;;;;;;;2.23;1.67;;;11.20;98.00;;;;;;5052931;28;20456;-65
2022/05/02 01:54:39;;;;;;;1.60;1.50;;;11.30;98.00;;;;;;5035422;28;20484;-64
2022/05/02 01:57:06;;;;;;;4.33;2.70;;;11.30;98.00;;;;;;5052381;28;20493;-64
2022/05/02 01:59:34;;;;;;;11.33;2.10;;;11.30;98.00;;;;;;5052480;28;20460;-64
2022/05/02 02:02:01;;;;;;;3.20;1.80;;;11.30;98.00;;;;;;5052666;28;20454;-64
2022/05/02 02:07:14;;;;;;;2.43;1.70;;;11.30;98.00;;;;;;5052621;28;20971;-65
2022/05/02 02:09:43;;;;;;;2.70;2.00;;;11.30;98.00;;;;;;5052655;28;20456;-64
2022/05/02 02:12:11;;;;;;;1.87;1.73;;;11.40;98.00;;;;;;5052351;28;20556;-64
2022/05/02 02:14:38;;;;;;;2.70;2.03;;;11.40;98.00;;;;;;5052364;28;20470;-65
2022/05/02 02:17:06;;;;;;;3.90;2.10;;;11.50;98.00;;;;;;5052337;28;20490;-64
2022/05/02 02:19:33;;;;;;;2.17;2.03;;;11.40;98.00;;;;;;5052529;28;20463;-65
2022/05/02 02:22:16;;;;;;;2.10;1.70;;;11.40;98.00;;;;;;5052659;28;20532;-64
2022/05/02 02:24:46;;;;;;;4.20;2.47;;;11.40;98.00;;;;;;5052367;28;20456;-64
2022/05/02 02:27:13;;;;;;;1.87;1.83;;;11.60;98.00;;;;;;5052388;28;20553;-65
2022/05/02 02:29:40;;;;;;;2.67;2.00;;;11.50;98.00;;;;;;5034736;28;20468;-65
2022/05/02 02:32:08;;;;;;;2.00;1.83;;;11.60;98.00;;;;;;5052341;28;20792;-64
2022/05/02 02:34:35;;;;;;;3.40;2.10;;;11.60;98.00;;;;;;5052285;28;20466;-65
2022/05/02 02:37:02;;;;;;;1.97;1.77;;;11.50;98.00;;;;;;5052313;28;20561;-64
2022/05/02 02:39:29;;;;;;;2.07;1.70;;;11.50;98.00;;;;;;5052156;28;20496;-65
2022/05/02 02:41:58;;;;;;;2.70;2.10;;;11.70;98.00;;;;;;5052351;28;20852;-65
2022/05/02 02:44:25;;;;;;;4.63;2.63;;;11.70;98.00;;;;;;5052208;28;20462;-64
2022/05/02 02:46:52;;;;;;;1.73;1.53;;;11.60;98.00;;;;;;5052254;28;20529;-65
2022/05/02 02:49:19;;;;;;;2.47;2.30;;;11.50;98.00;;;;;;5052020;28;20466;-65
2022/05/02 02:51:46;;;;;;;2.67;1.77;;;11.40;98.00;;;;;;5052022;28;20459;-64
2022/05/02 02:54:14;;;;;;;3.43;1.80;;;11.30;98.00;;;;;;5052006;28;20457;-65
2022/05/02 02:56:41;;;;;;;2.70;2.03;;;11.20;98.00;;;;;;5051601;28;20481;-64
2022/05/02 02:59:09;;;;;;;1.87;1.43;;;11.10;98.00;;;;;;5051813;28;20599;-65
2022/05/02 03:01:37;;;;;;;1.63;1.57;;;11.00;98.00;;;;;;5051323;28;20455;-64
2022/05/02 03:06:45;;;;;;;2.07;1.70;;;10.80;98.00;;;;;;5035287;28;20561;-65
2022/05/02 03:09:12;;;;;;;2.63;2.20;;;10.90;98.00;;;;;;5051538;28;20459;-64
2022/05/02 03:11:40;;;;;;;3.37;1.77;;;10.90;98.00;;;;;;5051742;28;20456;-65
2022/05/02 03:14:07;;;;;;;2.40;1.83;;;11.10;98.00;;;;;;5051550;28;20462;-64
2022/05/02 03:16:36;;;;;;;1.73;1.67;;;11.00;98.00;;;;;;5051739;28;20491;-64
2022/05/02 03:19:04;;;;;;;2.50;2.00;;;11.00;98.00;;;;;;5051520;28;20463;-65
2022/05/02 03:21:31;;;;;;;2.50;1.77;;;11.00;98.00;;;;;;5051743;28;20460;-65
2022/05/02 03:23:58;;;;;;;2.90;1.87;;;10.90;98.00;;;;;;5051769;28;20510;-64
2022/05/02 03:26:25;;;;;;;2.07;1.50;;;10.90;98.00;;;;;;5051647;28;20500;-65
2022/05/02 03:28:52;;;;;;;2.20;1.90;;;10.90;98.00;;;;;;5051633;28;20463;-65
2022/05/02 03:31:19;;;;;;;3.83;2.13;;;11.00;98.00;;;;;;5051623;28;20487;-65
2022/05/02 03:33:49;;;;;;;3.43;2.20;;;11.00;98.00;;;;;;5051566;28;20459;-65
2022/05/02 03:36:16;;;;;;;1.50;1.30;;;10.90;98.00;;;;;;5051538;28;20479;-65
2022/05/02 03:38:43;;;;;;;2.57;1.90;;;10.70;98.00;;;;;;5051712;28;20941;-65
2022/05/02 03:41:10;;;;;;;1.83;1.50;;;10.50;98.00;;;;;;5051637;28;20455;-65
2022/05/02 03:43:38;;;;;;;1.73;1.57;;;10.30;98.00;;;;;;5034058;28;20450;-64
2022/05/02 03:46:05;;;;;;;2.17;1.80;;;10.20;98.00;;;;;;5051580;28;20997;-64
2022/05/02 03:48:32;;;;;;;4.67;3.00;;;10.10;98.00;;;;;;5051434;28;20450;-65
2022/05/02 03:51:01;;;;;;;2.30;2.00;;;10.10;98.00;;;;;;5051777;28;20862;-64
2022/05/02 03:53:29;;;;;;;2.03;1.47;;;10.00;98.00;;;;;;5051387;28;20941;-65
2022/05/02 03:55:56;;;;;;;3.23;2.03;;;9.90;98.00;;;;;;5033475;28;20461;-65
2022/05/02 03:58:23;;;;;;;2.90;1.87;;;9.80;98.00;;;;;;5033639;28;20964;-65
2022/05/02 04:00:50;;;;;;;2.37;2.00;;;9.80;98.00;;;;;;5051119;28;20455;-64
2022/05/02 04:03:17;;;;;;;1.90;1.73;;;9.60;98.00;;;;;;5051045;28;20461;-64
2022/05/02 04:05:44;;;;;;;2.27;1.53;;;9.60;98.00;;;;;;5033467;28;20461;-65
2022/05/02 04:08:14;;;;;;;5.13;2.57;;;9.70;98.00;;;;;;5050996;28;20489;-64
2022/05/02 04:10:41;;;;;;;2.97;2.00;;;9.70;98.00;;;;;;5033689;28;20976;-65
2022/05/02 04:13:09;;;;;;;2.47;2.00;;;9.60;98.00;;;;;;5051127;28;20933;-65
2022/05/02 04:15:36;;;;;;;1.37;1.37;;;9.60;98.00;;;;;;5053980;28;20872;-66
2022/05/02 04:18:03;;;;;;;3.77;1.90;;;9.60;98.00;;;;;;5054341;28;20535;-66
2022/05/02 04:20:31;;;;;;;2.67;2.20;;;9.50;98.00;;;;;;5054650;28;20466;-66
2022/05/02 04:22:59;;;;;;;1.87;1.80;;;9.50;98.00;;;;;;5054753;28;20475;-67
2022/05/02 04:25:28;;;;;;;3.03;1.90;;;9.40;98.00;;;;;;5054602;28;20472;-66
2022/05/02 04:27:55;;;;;;;5.63;2.57;;;9.30;98.00;;;;;;5054500;28;20474;-66
2022/05/02 04:30:22;;;;;;;1.60;1.40;;;9.30;98.00;;;;;;5054646;28;20849;-66
2022/05/02 04:32:49;;;;;;;1.77;1.73;;;9.30;98.00;;;;;;5054769;28;20465;-66
2022/05/02 04:35:17;;;;;;;4.70;2.37;;;9.20;98.00;;;;;;5054443;28;20457;-67
2022/05/02 04:37:44;;;;;;;1.90;1.80;;;9.30;98.00;;;;;;5054729;28;20545;-67
2022/05/02 04:40:11;;;;;;;2.80;1.60;;;9.30;98.00;;;;;;5036725;28;20463;-66
2022/05/02 04:42:47;;;;;;;2.20;2.00;;;9.40;98.00;;;;;;5036867;28;20463;-67
2022/05/02 04:45:14;;;;;;;2.30;1.67;;;9.50;98.00;;;;;;5054326;28;20544;-66
2022/05/02 04:47:42;;;;;;;1.77;1.60;;;9.40;98.00;;;;;;5054572;28;20464;-66
2022/05/02 04:50:09;;;;;;;1.63;1.50;;;9.40;98.00;;;;;;5054260;28;20477;-66
2022/05/02 04:52:36;;;;;;;1.90;1.77;;;9.30;98.00;;;;;;5054053;28;20481;-66
2022/05/02 04:55:04;;;;;;;2.93;1.80;;;9.30;98.00;;;;;;5054048;28;20494;-66
2022/05/02 04:57:31;;;;;;;2.03;1.50;;;9.30;98.00;;;;;;5053792;28;20491;-67
2022/05/02 05:00:00;;;;;;;3.03;1.87;;;9.40;98.00;;;;;;5053946;28;20461;-66
2022/05/02 05:02:27;;;;;;;5.67;3.03;;;9.60;98.00;;;;;;5036140;28;20454;-66
2022/05/02 05:04:54;;;;;;;2.20;1.77;;;9.70;98.00;;;;;;5053781;28;20472;-66
2022/05/02 05:07:21;;;;;;;2.27;1.67;;;9.70;98.00;;;;;;5019449;28;20978;-66
2022/05/02 05:09:48;;;;;;;3.07;2.43;;;9.50;98.00;;;;;;5053623;28;20477;-66
2022/05/02 05:12:28;;;;;;;2.80;1.60;;;9.50;98.00;;;;;;5053705;28;20878;-66
2022/05/02 05:18:02;;;;;;;1.40;1.33;;;9.70;98.00;;;;;;5053570;28;20480;-66
2022/05/02 05:20:40;;;;;;;3.00;2.33;;;9.80;98.00;;;;;;5035921;28;20483;-66
2022/05/02 05:23:26;;;;;;;2.27;2.10;;;9.90;98.00;;;;;;5053597;28;20476;-67
2022/05/02 05:26:07;;;;;;;3.30;2.20;;;10.20;98.00;;;;;;5052588;28;20469;-66
2022/05/02 05:28:57;;;;;;;2.50;1.80;;;10.10;98.00;;;;;;5053534;28;20453;-66
2022/05/02 05:31:33;;;;;;;2.80;2.10;;;10.10;98.00;;;;;;5053292;28;20545;-66
2022/05/02 05:34:08;;;;;;;2.30;2.03;;;10.20;98.00;;;;;;5053487;28;20451;-67
2022/05/02 05:37:13;;;;;;;3.43;2.07;;;10.30;98.00;;;;;;5035289;28;20473;-66
2022/05/02 05:39:46;;;;;;;4.43;2.30;;;10.30;98.00;;;;;;5053330;28;20461;-66
2022/05/02 05:42:22;;;;;;;3.17;2.30;;;10.50;98.00;;;;;;5053355;28;20456;-66
2022/05/02 05:44:59;;;;;;;4.70;2.47;;;10.60;98.00;;;;;;5053241;28;20472;-66
2022/05/02 05:47:52;;;;;;;2.70;2.17;;;10.70;98.00;;;;;;5052753;28;20464;-66
2022/05/02 05:50:23;;;;;;;2.50;1.80;;;10.90;98.00;;;;;;5053012;28;20465;-66
2022/05/02 05:53:07;;;;;;;5.20;2.60;;;11.00;98.00;;;;;;5035781;28;20462;-66
2022/05/02 05:55:48;;;;;;;2.57;2.07;;;11.10;98.00;;;;;;5036691;28;20485;-66
2022/05/02 05:58:21;;;;;;;3.70;2.30;;;11.20;98.00;;;;;;5052730;28;20482;-66
2022/05/02 06:01:01;;;;;;;2.87;2.50;;;11.20;98.00;;;;;;5052749;28;20516;-66
2022/05/02 06:03:35;;;;;;;1.40;1.20;;;11.20;98.00;;;;;;5036562;28;20459;-66
2022/05/02 06:06:02;;;;;;;4.23;2.53;;;11.30;98.00;;;;;;5035066;28;20555;-66
2022/05/02 06:08:31;;;;;;;3.47;1.77;;;11.50;98.00;;;;;;5052579;28;20459;-67
2022/05/02 06:10:59;;;;;;;4.03;2.10;;;11.60;98.00;;;;;;5052627;28;20953;-66
2022/05/02 06:13:32;;;;;;;4.00;2.70;;;11.70;98.00;;;;;;5052390;28;20459;-66
2022/05/02 06:18:51;;;;;;;2.27;1.90;;;11.90;98.00;;;;;;5121840;22;20482;-87
2022/05/02 06:21:22;;;;;;;2.17;2.00;;;11.90;98.00;;;;;;5032282;28;20855;-86
2022/05/02 06:23:51;;;;;;;1.70;1.60;;;11.90;98.00;;;;;;5032584;28;20487;-88
2022/05/02 06:26:23;;;;;;;3.33;2.33;;;12.00;98.00;;;;;;5032933;28;20852;-86
2022/05/02 06:28:52;;;;;;;4.33;2.97;;;11.90;98.00;;;;;;5032971;28;20855;-87
2022/05/02 06:31:21;;;;;;;1.87;1.80;;;11.90;98.00;;;;;;5033448;28;20548;-87
2022/05/02 06:33:51;;;;;;;2.90;2.30;;;12.00;98.00;;;;;;5034295;28;20487;-86
2022/05/02 06:36:43;;;;;;;2.53;2.17;;;12.20;98.00;;;;;;5036776;28;20497;-87
2022/05/02 06:39:15;;;;;;;2.27;1.87;;;12.30;98.00;;;;;;5036470;28;20475;-87
2022/05/02 06:41:55;;;;;;;2.77;2.50;;;12.40;98.00;;;;;;5042932;28;20464;-87
2022/05/02 06:44:32;;;;;;;3.87;2.37;;;12.40;98.00;;;;;;5049980;28;20514;-87
2022/05/02 06:47:10;;;;;;;2.20;2.00;;;12.40;98.00;;;;;;5041508;28;20448;-87
2022/05/02 06:49:45;;;;;;;2.00;1.70;;;12.30;98.00;;;;;;5032365;28;20492;-86
2022/05/02 06:52:13;;;;;;;2.40;2.20;;;12.50;98.00;;;;;;5032434;28;20822;-87
2022/05/02 06:54:58;;;;;;;3.13;2.80;;;12.70;98.00;;;;;;5032078;28;20465;-87
2022/05/02 06:57:41;;;;;;;3.50;2.77;;;12.90;98.00;;;;;;5031905;28;20527;-86
2022/05/02 07:00:14;;;;;;;2.03;1.93;;;13.00;98.00;;;;;;5033418;28;20483;-87
2022/05/02 07:03:11;;;;;;;2.77;2.20;;;13.00;98.00;;;;;;5032639;28;20475;-87
2022/05/02 07:05:52;;;;;;;5.53;3.33;;;13.10;98.00;;;;;;5032182;28;20450;-87
2022/05/02 07:11:19;;;;;;;2.90;2.43;;;13.10;98.00;;;;;;5015884;28;20486;-87
2022/05/02 07:13:59;;;;;;;3.60;3.23;;;13.30;98.00;;;;;;5031719;28;20983;-87
2022/05/02 07:16:26;;;;;;;4.10;2.30;;;13.40;98.00;;;;;;5031334;28;20994;-87
2022/05/02 07:19:20;;;;;;;2.83;2.27;;;13.60;98.00;;;;;;5030695;28;20496;-88
2022/05/02 07:21:58;;;;;;;4.27;2.77;;;13.60;98.00;;;;;;5031365;28;20968;-87
2022/05/02 07:24:40;;;;;;;3.30;2.77;;;13.80;98.00;;;;;;5031166;28;20460;-88
2022/05/02 07:27:24;;;;;;;2.40;2.00;;;13.90;98.00;;;;;;5029318;28;20986;-90
2022/05/02 07:29:51;;;;;;;3.70;2.33;;;13.90;98.00;;;;;;5035060;28;20478;-91
2022/05/02 07:32:24;;;;;;;1.87;1.77;;;13.90;98.00;;;;;;5033499;28;20504;-90
2022/05/02 07:34:55;;;;;;;3.00;2.50;;;14.10;98.00;;;;;;5031761;28;20472;-90
2022/05/02 07:37:24;;;;;;;6.90;4.03;;;14.30;98.00;;;;;;5034252;28;20500;-88
2022/05/02 07:39:52;;;;;;;4.00;3.33;;;14.30;98.00;;;;;;5039788;28;20496;-90
2022/05/02 07:42:20;;;;;;;4.20;3.13;;;14.40;98.00;;;;;;5045103;28;20476;-89
2022/05/02 07:44:51;;;;;;;4.23;2.90;;;14.70;98.00;;;;;;5033915;28;20715;-90
2022/05/02 07:47:19;;;;;;;4.03;3.00;;;14.70;98.00;;;;;;5044507;28;20450;-90
2022/05/02 07:49:49;;;;;;;4.40;2.83;;;14.90;98.00;;;;;;5032423;28;20485;-89
2022/05/02 07:52:20;;;;;;;5.90;3.40;;;15.10;98.00;;;;;;5042282;28;20487;-89
2022/05/02 07:54:50;;;;;;;3.33;2.50;;;15.30;98.00;;;;;;5031749;28;20455;-90
2022/05/02 07:57:19;;;;;;;3.47;2.57;;;15.40;98.00;;;;;;5048991;28;20462;-90
2022/05/02 07:59:50;;;;;;;4.73;3.37;;;15.60;98.00;;;;;;5035283;28;20484;-90
2022/05/02 08:02:20;;;;;;;5.27;3.37;;;15.60;98.00;;;;;;5050603;28;20467;-90
2022/05/02 08:04:49;;;;;;;4.53;3.83;;;15.70;98.00;;;;;;5042413;28;20455;-92
2022/05/02 08:07:23;;;;;;;5.37;3.37;;;15.80;98.00;;;;;;5050287;28;20465;-92
2022/05/02 08:10:24;;;;;;;3.50;2.57;;;15.90;98.00;;;;;;5042961;28;20495;-89
2022/05/02 08:12:57;;;;;;;5.13;3.07;;;16.00;98.00;;;;;;5041575;28;20466;-88
2022/05/02 08:15:27;;;;;;;6.47;3.20;;;16.10;98.00;;;;;;5037167;28;20544;-90
2022/05/02 08:18:27;;;;;;;3.97;2.73;;;16.20;98.00;;;;;;5034283;28;20534;-90
2022/05/02 08:20:56;;;;;;;3.57;2.90;;;16.00;98.00;;;;;;5050214;28;20528;-91
2022/05/02 08:29:47;;;;;;;3.67;2.63;;;15.90;98.00;;;;;;5040562;28;20481;-90
2022/05/02 08:32:23;;;;;;;5.80;3.33;;;16.00;98.00;;;;;;5032424;28;20460;-91
2022/05/02 08:35:03;;;;;;;4.30;3.00;;;15.90;98.00;;;;;;5034557;28;20535;-93
2022/05/02 08:37:47;;;;;;;4.17;2.87;;;15.90;98.00;;;;;;5043493;28;20504;-91
2022/05/02 08:40:23;;;;;;;4.93;3.23;;;16.00;98.00;;;;;;5032126;28;21008;-91
2022/05/02 08:43:26;;;;;;;3.37;2.87;;;16.20;98.00;;;;;;5032193;28;20503;-91
2022/05/02 08:46:28;;;;;;;4.43;2.73;;;16.10;98.00;;;;;;5021646;28;20460;-89
2022/05/02 08:49:36;;;;;;;5.43;3.40;;;16.10;98.00;;;;;;5035554;28;20485;-91
2022/05/02 08:52:47;;;;;;;5.03;2.70;;;16.30;98.00;;;;;;5025808;28;20487;-91
2022/05/02 08:55:51;;;;;;;4.20;2.43;;;16.60;98.00;;;;;;5041442;28;20476;-92
2022/05/02 08:59:00;;;;;;;3.60;2.70;;;16.90;98.00;;;;;;5034722;28;20478;-92
2022/05/02 09:01:58;;;;;;;4.00;3.00;;;17.00;98.00;;;;;;5042485;28;20887;-91
2022/05/02 09:05:01;;;;;;;3.10;2.57;;;17.00;98.00;;;;;;5041411;28;20942;-91
2022/05/02 09:08:00;;;;;;;5.37;3.17;;;17.10;98.00;;;;;;5042840;28;20870;-91
2022/05/02 09:10:57;;;;;;;3.87;2.60;;;17.10;98.00;;;;;;5040877;28;20476;-89
2022/05/02 09:13:54;;;;;;;3.77;2.33;;;16.90;98.00;;;;;;5039574;28;20462;-90
2022/05/02 09:17:04;;;;;;;5.70;2.67;;;16.90;98.00;;;;;;5041114;28;20460;-90
2022/05/02 09:20:15;;;;;;;2.17;1.90;;;16.80;98.00;;;;;;4994848;28;20498;-92
2022/05/02 09:23:08;;;;;;;4.17;2.60;;;16.70;98.00;;;;;;5041212;28;20469;-90
2022/05/02 09:25:40;;;;;;;4.50;2.53;;;17.00;98.00;;;;;;5038813;28;20462;-92
2022/05/02 09:28:20;;;;;;;6.27;3.17;;;17.40;97.90;;;;;;5039208;28;20476;-91
2022/05/02 09:31:17;;;;;;;6.27;2.93;;;17.70;96.10;;;;;;5037462;28;20978;-91
2022/05/02 09:33:57;;;;;;;2.47;1.90;;;18.10;96.90;;;;;;5040264;28;20462;-92
2022/05/02 09:36:30;;;;;;;3.80;2.33;;;18.30;94.80;;;;;;5042553;28;20557;-91
2022/05/02 09:39:10;;;;;;;3.50;2.37;;;18.50;93.80;;;;;;5015439;28;20549;-90
2022/05/02 09:42:05;;;;;;;4.23;2.23;;;18.60;92.90;;;;;;5036000;28;20457;-92
2022/05/02 09:51:21;;;;;;;3.00;2.30;;;19.40;89.80;;;;;;4996835;28;20456;-89
2022/05/02 09:54:04;;;;;;;2.90;2.00;;;19.40;89.40;;;;;;5063421;28;20458;-92
2022/05/02 09:56:38;;;;;;;2.13;1.93;;;19.20;88.20;;;;;;5056336;28;20496;-93
2022/05/02 09:59:09;;;;;;;3.47;2.53;;;19.00;90.40;;;;;;5046514;28;20861;-93
2022/05/02 10:01:40;;;;;;;3.80;2.57;;;19.10;91.80;;;;;;5035461;28;20467;-92
2022/05/02 10:04:36;;;;;;;3.23;2.10;;;19.40;92.30;;;;;;5039309;28;20467;-93
2022/05/02 10:07:08;;;;;;;3.13;2.23;;;19.90;92.60;;;;;;5039246;28;20467;-92
2022/05/02 10:09:50;;;;;;;3.90;1.93;;;20.00;90.40;;;;;;5047509;28;20481;-92
2022/05/02 10:12:28;;;;;;;4.10;2.80;;;19.80;90.50;;;;;;5022590;28;20465;-91
2022/05/02 10:15:10;;;;;;;3.87;2.30;;;19.60;89.80;;;;;;5026238;28;20819;-93
2022/05/02 10:18:00;;;;;;;5.80;2.90;;;19.30;89.80;;;;;;5033440;28;20462;-93
2022/05/02 10:20:35;;;;;;;4.23;2.50;;;19.00;92.40;;;;;;5038805;28;20595;-92
2022/05/02 10:23:19;;;;;;;3.23;2.67;;;19.00;90.00;;;;;;5047706;28;20468;-92
2022/05/02 10:25:56;;;;;;;2.90;1.77;;;18.70;91.40;;;;;;5030813;28;20459;-92
2022/05/02 10:28:37;;;;;;;3.33;2.40;;;18.70;90.70;;;;;;5029618;28;20469;-92
2022/05/02 10:31:06;;;;;;;4.90;1.90;;;19.20;94.30;;;;;;5040372;28;21690;-92
2022/05/02 10:33:37;;;;;;;4.77;2.67;;;19.80;93.00;;;;;;5036924;28;20498;-89
2022/05/02 10:36:07;;;;;;;2.97;2.50;;;20.20;91.00;;;;;;5038376;28;20993;-90
2022/05/02 10:38:44;;;;;;;2.13;2.00;;;20.20;88.80;;;;;;5031681;28;20878;-90
2022/05/02 10:41:16;;;;;;;4.90;2.27;;;20.30;92.80;;;;;;5039743;28;20458;-90
2022/05/02 10:43:50;;;;;;;3.30;2.77;;;20.30;88.30;;;;;;5024850;28;20452;-90
2022/05/02 10:46:19;;;;;;;3.63;2.40;;;20.10;88.60;;;;;;5040899;28;20465;-89
2022/05/02 10:48:52;;;;;;;3.23;1.83;;;19.80;90.60;;;;;;5038616;28;20562;-89
2022/05/02 10:51:26;;;;;;;3.13;2.40;;;19.60;91.10;;;;;;5037122;28;20963;-90
2022/05/02 10:54:10;;;;;;;2.27;2.00;;;19.40;90.70;;;;;;5037014;28;20468;-89
2022/05/02 10:56:44;;;;;;;3.07;1.93;;;19.40;90.70;;;;;;5044531;28;20962;-89
2022/05/02 10:59:13;;;;;;;2.43;2.03;;;19.50;91.10;;;;;;5037766;28;20585;-89
2022/05/02 11:02:25;;;;;;;2.73;2.40;;;19.50;90.30;;;;;;5021698;28;20459;-90
2022/05/02 11:05:16;;;;;;;3.33;2.50;;;19.50;92.00;;;;;;5020541;28;20465;-89
2022/05/02 11:08:09;;;;;;;2.90;2.20;;;19.60;90.30;;;;;;5025183;28;20470;-90
2022/05/02 11:10:48;;;;;;;2.13;1.70;;;19.50;91.50;;;;;;5032067;28;20493;-89
2022/05/02 11:13:27;;;;;;;3.93;2.17;;;19.40;91.30;;;;;;5038871;28;20569;-89
2022/05/02 11:16:10;;;;;;;2.03;1.73;;;19.30;91.80;;;;;;5035290;28;20464;-90
2022/05/02 11:21:49;;;;;;;2.70;1.87;;;19.20;91.80;;;;;;5039865;28;20437;-89
2022/05/02 11:24:34;;;;;;;2.43;2.03;;;19.60;91.90;;;;;;5033765;28;20462;-87
2022/05/02 11:27:23;;;;;;;3.67;2.50;;;19.90;92.00;;;;;;5049725;28;20457;-89
2022/05/02 11:30:01;;;;;;;2.97;2.23;;;19.90;88.00;;;;;;5045455;28;20484;-88
2022/05/02 11:32:38;;;;;;;2.70;2.10;;;20.10;87.80;;;;;;5039136;28;20458;-89
2022/05/02 11:35:12;;;;;;;2.43;1.80;;;20.30;88.80;;;;;;5038769;28;20451;-89
2022/05/02 11:37:51;;;;;;;5.07;2.10;;;20.50;88.80;;;;;;5033515;28;20482;-89
2022/05/02 11:40:25;;;;;;;11.90;2.70;;;20.70;91.30;;;;;;5050149;28;20560;-88
2022/05/02 11:42:53;;;;;;;4.03;2.50;;;20.90;88.50;;;;;;5039745;28;20488;-89
2022/05/02 11:45:29;;;;;;;3.57;2.10;;;21.00;86.00;;;;;;5041879;28;20461;-90
2022/05/02 11:48:24;;;;;;;2.07;1.77;;;20.90;87.30;;;;;;5052225;28;20515;-89
2022/05/02 11:50:57;;;;;;;3.57;2.00;;;20.70;86.90;;;;;;5046456;28;20531;-89
2022/05/02 11:53:30;;;;;;;2.57;2.13;;;20.60;88.50;;;;;;5056772;28;20454;-89
2022/05/02 11:56:02;;;;;;;3.60;2.37;;;20.60;88.00;;;;;;5035865;28;20459;-90
2022/05/02 11:58:38;;;;;;;2.27;1.70;;;20.40;87.40;;;;;;5043716;28;20517;-90
2022/05/02 12:01:07;;;;;;;2.83;2.20;;;20.10;88.00;;;;;;5036685;28;20465;-89
2022/05/02 12:03:53;;;;;;;2.80;1.80;;;19.90;88.70;;;;;;5051223;28;20986;-89
2022/05/02 12:06:38;;;;;;;3.13;2.23;;;19.90;88.50;;;;;;5047171;28;21161;-90
2022/05/02 12:09:07;;;;;;;2.27;1.90;;;19.80;87.80;;;;;;5039048;28;21007;-90
2022/05/02 12:11:54;;;;;;;2.90;2.10;;;19.80;88.80;;;;;;5051726;28;20536;-89
2022/05/02 12:14:24;;;;;;;3.97;2.93;;;20.20;88.60;;;;;;5044040;28;20450;-90
2022/05/02 12:17:06;;;;;;;2.70;2.00;;;21.00;88.70;;;;;;5045876;28;20469;-91
2022/05/02 12:19:34;;;;;;;2.60;1.87;;;22.00;88.30;;;;;;5028741;28;20493;-89
2022/05/02 12:22:03;;;;;;;3.10;2.07;;;22.80;84.10;;;;;;5029201;28;20455;-90
2022/05/02 12:24:33;;;;;;;4.20;2.50;;;23.40;83.80;;;;;;5038053;28;20554;-90
2022/05/02 12:27:07;;;;;;;3.13;2.50;;;24.00;81.40;;;;;;5044350;28;20550;-89
2022/05/02 12:29:37;;;;;;;2.60;2.10;;;23.70;78.60;;;;;;5043525;28;21056;-92
2022/05/02 12:32:07;;;;;;;2.23;1.97;;;23.20;80.20;;;;;;5044086;28;20553;-92
2022/05/02 12:34:39;;;;;;;3.03;2.30;;;23.00;79.30;;;;;;5045930;28;20470;-92
2022/05/02 12:37:20;;;;;;;2.57;2.00;;;22.80;80.60;;;;;;5052114;28;21010;-92
2022/05/02 12:39:50;;;;;;;5.40;2.23;;;22.50;82.80;;;;;;5048652;28;20486;-92
2022/05/02 12:42:19;;;;;;;4.10;2.47;;;22.30;81.80;;;;;;5035736;28;20489;-93
2022/05/02 12:45:02;;;;;;;4.83;2.60;;;21.90;81.30;;;;;;5049894;28;20489;-92
2022/05/02 12:47:35;;;;;;;2.17;2.00;;;21.50;83.00;;;;;;5044223;28;20465;-93
2022/05/02 12:50:17;;;;;;;3.50;2.60;;;21.20;84.90;;;;;;5043874;28;20493;-93
2022/05/02 12:52:47;;;;;;;3.43;2.80;;;21.10;84.50;;;;;;5036370;28;20748;-93
2022/05/02 12:55:19;;;;;;;4.70;2.40;;;21.20;84.50;;;;;;5044568;28;20818;-91
2022/05/02 13:00:40;;;;;;;3.30;2.20;;;20.90;84.80;;;;;;5030069;28;20508;-93
2022/05/02 13:03:27;;;;;;;2.40;2.00;;;21.20;85.50;;;;;;5060602;28;20546;-91
2022/05/02 13:05:56;;;;;;;3.40;2.10;;;22.00;85.60;;;;;;5070484;28;20460;-91
2022/05/02 13:08:33;;;;;;;3.40;2.20;;;22.80;81.00;;;;;;5054423;28;20958;-92
2022/05/02 13:11:06;;;;;;;3.10;2.33;;;23.40;80.30;;;;;;5049031;28;20947;-93
2022/05/02 13:13:42;;;;;;;3.50;2.70;;;24.00;80.80;;;;;;5033071;28;20954;-92
2022/05/02 13:16:26;;;;;;;3.37;2.30;;;24.60;78.40;;;;;;5041205;28;20521;-93
2022/05/02 13:19:00;;;;;;;2.43;1.97;;;25.10;76.70;;;;;;5032278;28;20482;-93
2022/05/02 13:21:29;;;;;;;3.00;2.30;;;25.40;74.20;;;;;;5039847;28;20478;-93
2022/05/02 13:24:00;;;;;;;3.50;2.60;;;25.80;73.70;;;;;;5033768;28;20478;-93
2022/05/02 13:27:01;;;;;;;3.17;2.37;;;25.30;72.50;;;;;;5034403;28;20943;-93
2022/05/02 13:29:38;;;;;;;3.40;2.30;;;24.60;72.20;;;;;;5039471;28;20577;-92
2022/05/02 13:32:15;;;;;;;3.17;2.30;;;23.70;75.60;;;;;;5040873;28;20486;-94
2022/05/02 13:35:00;;;;;;;4.00;2.60;;;23.30;76.00;;;;;;5040900;28;20473;-92
2022/05/02 13:37:36;;;;;;;4.73;2.60;;;22.90;79.90;;;;;;5031986;28;20466;-93
2022/05/02 13:40:09;;;;;;;3.20;2.40;;;23.50;78.80;;;;;;5048302;28;20490;-93
2022/05/02 13:42:53;;;;;;;3.07;2.03;;;23.90;75.60;;;;;;5034807;28;20465;-93
2022/05/02 13:45:30;;;;;;;6.10;3.30;;;23.70;75.10;;;;;;5038951;28;20465;-93
2022/05/02 13:48:13;;;;;;;5.33;2.60;;;23.40;75.90;;;;;;5035228;28;20462;-93
2022/05/02 13:50:52;;;;;;;4.50;2.53;;;23.20;77.10;;;;;;5047209;28;20474;-93
2022/05/02 13:53:28;;;;;;;4.60;2.90;;;22.90;78.50;;;;;;5043601;28;20511;-93
2022/05/02 13:55:59;;;;;;;3.27;2.43;;;22.30;78.00;;;;;;5040893;28;20848;-93
2022/05/02 13:58:40;;;;;;;3.60;2.40;;;22.10;78.90;;;;;;5032741;28;20458;-93